sensor_id;sensor_type;location;lat;lon;timestamp;P1;durP1;ratioP1;P2;durP2;ratioP2
49758;SDS011;35654;46.080;11.118;2023-02-01T00:00:49;34.78;;;12.23;;
49758;SDS011;35654;46.080;11.118;2023-02-01T00:03:15;28.05;;;11.35;;
49758;SDS011;35654;46.080;11.118;2023-02-01T00:05:53;31.80;;;12.80;;
49758;SDS011;35654;46.080;11.118;2023-02-01T00:08:21;29.40;;;12.07;;
49758;SDS011;35654;46.080;11.118;2023-02-01T00:10:48;26.13;;;11.15;;
49758;SDS011;35654;46.080;11.118;2023-02-01T00:13:15;22.85;;;10.73;;
49758;SDS011;35654;46.080;11.118;2023-02-01T00:15:41;27.80;;;10.13;;
49758;SDS011;35654;46.080;11.118;2023-02-01T00:18:08;24.88;;;10.88;;
49758;SDS011;35654;46.080;11.118;2023-02-01T00:23:01;31.88;;;10.43;;
49758;SDS011;35654;46.080;11.118;2023-02-01T00:27:54;24.50;;;10.77;;
49758;SDS011;35654;46.080;11.118;2023-02-01T00:30:23;26.88;;;10.63;;
49758;SDS011;35654;46.080;11.118;2023-02-01T00:32:49;27.83;;;11.40;;
49758;SDS011;35654;46.080;11.118;2023-02-01T00:35:15;32.10;;;10.48;;
49758;SDS011;35654;46.080;11.118;2023-02-01T00:37:42;23.20;;;10.35;;
49758;SDS011;35654;46.080;11.118;2023-02-01T00:40:08;28.08;;;10.52;;
49758;SDS011;35654;46.080;11.118;2023-02-01T00:42:35;32.90;;;10.38;;
49758;SDS011;35654;46.080;11.118;2023-02-01T00:45:02;31.42;;;11.02;;
49758;SDS011;35654;46.080;11.118;2023-02-01T00:47:29;25.75;;;10.40;;
49758;SDS011;35654;46.080;11.118;2023-02-01T00:49:56;22.63;;;9.50;;
49758;SDS011;35654;46.080;11.118;2023-02-01T00:52:23;21.02;;;9.27;;
49758;SDS011;35654;46.080;11.118;2023-02-01T00:57:16;24.52;;;10.18;;
49758;SDS011;35654;46.080;11.118;2023-02-01T00:59:42;29.83;;;10.00;;
49758;SDS011;35654;46.080;11.118;2023-02-01T01:02:09;23.38;;;9.93;;
49758;SDS011;35654;46.080;11.118;2023-02-01T01:04:37;27.60;;;10.70;;
49758;SDS011;35654;46.080;11.118;2023-02-01T01:09:30;24.55;;;9.15;;
49758;SDS011;35654;46.080;11.118;2023-02-01T01:11:56;20.33;;;9.20;;
49758;SDS011;35654;46.080;11.118;2023-02-01T01:14:29;23.73;;;9.88;;
49758;SDS011;35654;46.080;11.118;2023-02-01T01:16:56;22.13;;;9.80;;
49758;SDS011;35654;46.080;11.118;2023-02-01T01:19:22;20.63;;;9.00;;
49758;SDS011;35654;46.080;11.118;2023-02-01T01:21:49;21.30;;;8.77;;
49758;SDS011;35654;46.080;11.118;2023-02-01T01:26:42;20.92;;;8.82;;
49758;SDS011;35654;46.080;11.118;2023-02-01T01:29:08;18.23;;;8.15;;
49758;SDS011;35654;46.080;11.118;2023-02-01T01:31:36;21.10;;;8.25;;
49758;SDS011;35654;46.080;11.118;2023-02-01T01:34:03;23.83;;;8.55;;
49758;SDS011;35654;46.080;11.118;2023-02-01T01:36:29;23.30;;;8.10;;
49758;SDS011;35654;46.080;11.118;2023-02-01T01:38:56;18.35;;;7.88;;
49758;SDS011;35654;46.080;11.118;2023-02-01T01:41:23;18.75;;;8.80;;
49758;SDS011;35654;46.080;11.118;2023-02-01T01:46:38;16.40;;;7.03;;
49758;SDS011;35654;46.080;11.118;2023-02-01T01:49:15;17.58;;;7.35;;
49758;SDS011;35654;46.080;11.118;2023-02-01T01:51:47;17.20;;;7.07;;
49758;SDS011;35654;46.080;11.118;2023-02-01T01:54:18;18.48;;;7.00;;
49758;SDS011;35654;46.080;11.118;2023-02-01T01:56:51;18.30;;;7.45;;
49758;SDS011;35654;46.080;11.118;2023-02-01T01:59:22;16.35;;;7.40;;
49758;SDS011;35654;46.080;11.118;2023-02-01T02:01:50;16.65;;;7.30;;
49758;SDS011;35654;46.080;11.118;2023-02-01T02:04:18;16.30;;;6.32;;
49758;SDS011;35654;46.080;11.118;2023-02-01T02:06:59;16.30;;;7.07;;
49758;SDS011;35654;46.080;11.118;2023-02-01T02:09:32;14.48;;;6.05;;
49758;SDS011;35654;46.080;11.118;2023-02-01T02:11:59;16.65;;;6.10;;
49758;SDS011;35654;46.080;11.118;2023-02-01T02:14:25;14.45;;;6.93;;
49758;SDS011;35654;46.080;11.118;2023-02-01T02:17:01;15.80;;;6.35;;
49758;SDS011;35654;46.080;11.118;2023-02-01T02:28:36;16.27;;;6.90;;
49758;SDS011;35654;46.080;11.118;2023-02-01T02:46:16;12.52;;;5.90;;
49758;SDS011;35654;46.080;11.118;2023-02-01T02:49:27;14.23;;;5.55;;
49758;SDS011;35654;46.080;11.118;2023-02-01T02:52:15;17.27;;;6.07;;
49758;SDS011;35654;46.080;11.118;2023-02-01T02:55:03;14.07;;;6.25;;
49758;SDS011;35654;46.080;11.118;2023-02-01T02:57:35;15.90;;;5.82;;
49758;SDS011;35654;46.080;11.118;2023-02-01T03:00:32;17.73;;;6.72;;
49758;SDS011;35654;46.080;11.118;2023-02-01T03:03:20;17.90;;;6.18;;
49758;SDS011;35654;46.080;11.118;2023-02-01T03:06:07;12.30;;;5.30;;
49758;SDS011;35654;46.080;11.118;2023-02-01T03:08:44;14.65;;;5.65;;
49758;SDS011;35654;46.080;11.118;2023-02-01T03:11:12;15.00;;;6.38;;
49758;SDS011;35654;46.080;11.118;2023-02-01T03:13:44;16.25;;;6.35;;
49758;SDS011;35654;46.080;11.118;2023-02-01T03:16:36;13.55;;;6.22;;
49758;SDS011;35654;46.080;11.118;2023-02-01T03:19:29;15.80;;;6.30;;
49758;SDS011;35654;46.080;11.118;2023-02-01T03:22:08;15.10;;;6.60;;
49758;SDS011;35654;46.080;11.118;2023-02-01T03:24:49;16.52;;;6.30;;
49758;SDS011;35654;46.080;11.118;2023-02-01T03:27:23;13.02;;;6.35;;
49758;SDS011;35654;46.080;11.118;2023-02-01T03:32:48;14.30;;;6.18;;
49758;SDS011;35654;46.080;11.118;2023-02-01T03:35:33;16.30;;;6.47;;
49758;SDS011;35654;46.080;11.118;2023-02-01T03:40:55;17.85;;;6.30;;
49758;SDS011;35654;46.080;11.118;2023-02-01T03:50:02;17.42;;;6.60;;
49758;SDS011;35654;46.080;11.118;2023-02-01T03:52:48;15.85;;;6.90;;
49758;SDS011;35654;46.080;11.118;2023-02-01T03:55:19;16.60;;;6.53;;
49758;SDS011;35654;46.080;11.118;2023-02-01T03:57:54;14.77;;;6.45;;
49758;SDS011;35654;46.080;11.118;2023-02-01T04:00:25;19.35;;;6.95;;
49758;SDS011;35654;46.080;11.118;2023-02-01T04:02:52;16.42;;;6.55;;
49758;SDS011;35654;46.080;11.118;2023-02-01T04:05:20;15.75;;;7.03;;
49758;SDS011;35654;46.080;11.118;2023-02-01T04:07:47;17.25;;;6.88;;
49758;SDS011;35654;46.080;11.118;2023-02-01T04:12:43;18.98;;;6.63;;
49758;SDS011;35654;46.080;11.118;2023-02-01T04:15:10;16.42;;;7.05;;
49758;SDS011;35654;46.080;11.118;2023-02-01T04:17:37;17.02;;;6.72;;
49758;SDS011;35654;46.080;11.118;2023-02-01T04:20:04;20.23;;;6.65;;
49758;SDS011;35654;46.080;11.118;2023-02-01T04:24:57;18.65;;;7.57;;
49758;SDS011;35654;46.080;11.118;2023-02-01T04:27:24;18.80;;;7.40;;
49758;SDS011;35654;46.080;11.118;2023-02-01T04:29:52;19.00;;;7.78;;
49758;SDS011;35654;46.080;11.118;2023-02-01T04:34:46;16.45;;;6.57;;
49758;SDS011;35654;46.080;11.118;2023-02-01T04:37:12;17.13;;;6.32;;
49758;SDS011;35654;46.080;11.118;2023-02-01T04:39:38;13.60;;;6.47;;
49758;SDS011;35654;46.080;11.118;2023-02-01T04:42:05;19.42;;;6.68;;
49758;SDS011;35654;46.080;11.118;2023-02-01T04:44:32;19.75;;;6.70;;
49758;SDS011;35654;46.080;11.118;2023-02-01T04:49:26;14.07;;;5.80;;
49758;SDS011;35654;46.080;11.118;2023-02-01T04:51:53;13.05;;;6.20;;
49758;SDS011;35654;46.080;11.118;2023-02-01T04:54:20;14.05;;;6.22;;
49758;SDS011;35654;46.080;11.118;2023-02-01T04:59:12;15.77;;;6.28;;
49758;SDS011;35654;46.080;11.118;2023-02-01T05:01:39;16.90;;;7.18;;
49758;SDS011;35654;46.080;11.118;2023-02-01T05:04:06;20.05;;;7.20;;
49758;SDS011;35654;46.080;11.118;2023-02-01T05:06:32;17.95;;;6.85;;
49758;SDS011;35654;46.080;11.118;2023-02-01T05:08:58;15.73;;;6.28;;
49758;SDS011;35654;46.080;11.118;2023-02-01T05:11:25;16.03;;;6.00;;
49758;SDS011;35654;46.080;11.118;2023-02-01T05:14:10;15.65;;;6.30;;
49758;SDS011;35654;46.080;11.118;2023-02-01T05:16:37;19.23;;;7.30;;
49758;SDS011;35654;46.080;11.118;2023-02-01T05:19:03;17.45;;;6.95;;
49758;SDS011;35654;46.080;11.118;2023-02-01T05:21:30;32.35;;;10.77;;
49758;SDS011;35654;46.080;11.118;2023-02-01T05:23:57;29.25;;;10.45;;
49758;SDS011;35654;46.080;11.118;2023-02-01T05:26:42;24.88;;;9.50;;
49758;SDS011;35654;46.080;11.118;2023-02-01T05:29:09;19.17;;;7.97;;
49758;SDS011;35654;46.080;11.118;2023-02-01T05:31:36;19.85;;;8.07;;
49758;SDS011;35654;46.080;11.118;2023-02-01T05:34:03;24.73;;;9.85;;
49758;SDS011;35654;46.080;11.118;2023-02-01T05:36:31;29.52;;;11.50;;
49758;SDS011;35654;46.080;11.118;2023-02-01T05:38:57;26.67;;;8.95;;
49758;SDS011;35654;46.080;11.118;2023-02-01T05:41:25;25.55;;;9.15;;
49758;SDS011;35654;46.080;11.118;2023-02-01T05:43:51;26.95;;;10.18;;
49758;SDS011;35654;46.080;11.118;2023-02-01T05:46:18;31.88;;;11.18;;
49758;SDS011;35654;46.080;11.118;2023-02-01T05:48:44;31.58;;;10.00;;
49758;SDS011;35654;46.080;11.118;2023-02-01T05:51:11;28.20;;;10.02;;
49758;SDS011;35654;46.080;11.118;2023-02-01T05:53:38;31.55;;;10.30;;
49758;SDS011;35654;46.080;11.118;2023-02-01T05:56:05;24.15;;;9.98;;
49758;SDS011;35654;46.080;11.118;2023-02-01T05:58:33;24.85;;;9.63;;
49758;SDS011;35654;46.080;11.118;2023-02-01T06:00:59;27.83;;;10.38;;
49758;SDS011;35654;46.080;11.118;2023-02-01T06:03:27;28.52;;;9.18;;
49758;SDS011;35654;46.080;11.118;2023-02-01T06:05:54;18.58;;;7.97;;
49758;SDS011;35654;46.080;11.118;2023-02-01T06:10:50;20.33;;;7.43;;
49758;SDS011;35654;46.080;11.118;2023-02-01T06:13:23;15.80;;;7.15;;
49758;SDS011;35654;46.080;11.118;2023-02-01T06:15:50;20.00;;;8.07;;
49758;SDS011;35654;46.080;11.118;2023-02-01T06:20:44;16.70;;;7.60;;
49758;SDS011;35654;46.080;11.118;2023-02-01T06:23:10;18.33;;;7.88;;
